Terminal Aerodrome Forecast
Issued by NWS

Home | Current Version | Previous Version | Text Only | Print | Product List | Glossary Off
Versions: 1 2 3 4 5 6 7 8 9 10 11 12 13 14 15 16 17 18 19 20 21

494
FTUS43 KICT 241311 CCA
TAFHUT
TAF COR
KHUT 241311Z 2413/2512 17012KT P6SM VCSH SCT100 BKN200
      TEMPO 2413/2415 5SM TSRA BKN080CB
     FM241500 20015G21KT P6SM BKN100 BKN200
     FM242000 21013KT P6SM SCT050
     FM250100 18010KT P6SM VCTS BKN060CB
     FM250300 09008KT P6SM VCTS BKN050CB=

USA.gov is the U.S. government's official web portal to all federal, state and local government web resources and services.